Time;durP1;ratioP1;P1;durP2;ratioP2;P2;SDS_P1;SDS_P2;PMS_P1;PMS_P2;Temp;Humidity;BMP_temperature;BMP_pressure;BME280_temperature;BME280_humidity;BME280_pressure;Samples;Min_cycle;Max_cycle;Signal;HPM_P1;HPM_P2
2021/03/11 00:01:14;;;;;;;14.13;3.72;;;;;;;;;;4357849;32;20118;-93
2021/03/11 00:03:49;;;;;;;12.93;4.05;;;;;;;;;;4346733;32;20094;-93
2021/03/11 00:06:25;;;;;;;10.52;3.10;;;;;;;;;;4348414;32;20048;-94
2021/03/11 00:08:59;;;;;;;13.80;4.53;;;;;;;;;;4347849;32;20074;-94
2021/03/11 00:11:34;;;;;;;14.80;4.12;;;;;;;;;;4350865;32;20055;-94
2021/03/11 00:14:13;;;;;;;17.65;4.37;;;;;;;;;;4348626;33;20651;-94
2021/03/11 00:16:43;;;;;;;15.00;3.72;;;;;;;;;;4339739;33;20094;-93
2021/03/11 00:19:17;;;;;;;14.45;3.67;;;;;;;;;;4344313;33;20056;-94
2021/03/11 00:21:45;;;;;;;15.38;3.97;;;;;;;;;;4324595;33;20071;-95
2021/03/11 00:24:26;;;;;;;16.05;3.95;;;;;;;;;;4334034;33;20064;-95
2021/03/11 00:26:56;;;;;;;16.80;4.00;;;;;;;;;;4332576;33;20047;-94
2021/03/11 00:29:31;;;;;;;10.93;3.28;;;;;;;;;;4332512;33;20079;-95
2021/03/11 00:32:07;;;;;;;14.15;4.12;;;;;;;;;;4345043;33;20085;-95
2021/03/11 00:35:12;;;;;;;17.55;4.20;;;;;;;;;;4330878;33;20070;-95
2021/03/11 00:38:04;;;;;;;18.35;4.00;;;;;;;;;;4305736;33;20078;-96
2021/03/11 00:40:48;;;;;;;20.60;4.62;;;;;;;;;;4349088;33;20069;-96
2021/03/11 00:43:34;;;;;;;18.37;4.15;;;;;;;;;;4333349;33;20459;-96
2021/03/11 00:46:18;;;;;;;14.82;3.83;;;;;;;;;;4338092;33;20040;-96
2021/03/11 00:48:49;;;;;;;13.80;3.83;;;;;;;;;;4329768;33;20788;-96
2021/03/11 00:51:33;;;;;;;17.42;4.37;;;;;;;;;;4334395;33;20133;-96
2021/03/11 00:54:14;;;;;;;13.90;3.92;;;;;;;;;;4334919;33;20082;-96
2021/03/11 00:56:46;;;;;;;15.40;4.18;;;;;;;;;;4346210;33;20044;-96
2021/03/11 00:59:17;;;;;;;12.93;4.10;;;;;;;;;;4344566;32;20046;-95
2021/03/11 01:01:47;;;;;;;19.90;4.50;;;;;;;;;;4341726;33;20130;-96
2021/03/11 01:04:22;;;;;;;19.67;4.27;;;;;;;;;;4340808;33;20076;-96
2021/03/11 01:07:04;;;;;;;19.23;4.82;;;;;;;;;;4343211;33;20145;-95
2021/03/11 01:09:33;;;;;;;15.02;4.10;;;;;;;;;;4327085;33;20053;-95
2021/03/11 01:12:06;;;;;;;16.90;4.53;;;;;;;;;;4328988;33;20102;-93
2021/03/11 01:14:34;;;;;;;16.17;4.30;;;;;;;;;;4350408;32;20047;-93
2021/03/11 01:17:03;;;;;;;15.75;3.97;;;;;;;;;;4345858;32;20145;-96
2021/03/11 01:19:31;;;;;;;20.77;4.75;;;;;;;;;;4340791;32;20051;-93
2021/03/11 01:22:00;;;;;;;15.38;4.32;;;;;;;;;;4358577;32;20135;-93
2021/03/11 01:24:30;;;;;;;18.70;4.70;;;;;;;;;;4359084;32;20062;-93
2021/03/11 01:26:58;;;;;;;15.68;4.30;;;;;;;;;;4338977;32;20111;-91
2021/03/11 01:29:26;;;;;;;14.00;3.97;;;;;;;;;;4346710;32;20604;-94
2021/03/11 01:31:55;;;;;;;18.67;4.47;;;;;;;;;;4345119;32;20047;-94
2021/03/11 01:34:23;;;;;;;16.33;3.45;;;;;;;;;;4348099;32;20044;-93
2021/03/11 01:36:52;;;;;;;18.00;4.43;;;;;;;;;;4334351;33;20048;-91
2021/03/11 01:39:20;;;;;;;16.52;3.95;;;;;;;;;;4341214;32;20111;-93
2021/03/11 01:41:48;;;;;;;12.90;4.28;;;;;;;;;;4341401;32;20065;-93
2021/03/11 01:44:16;;;;;;;16.85;4.25;;;;;;;;;;4341072;32;20067;-94
2021/03/11 01:46:48;;;;;;;15.82;4.28;;;;;;;;;;4342584;32;20064;-92
2021/03/11 01:49:31;;;;;;;28.15;17.37;;;;;;;;;;4356077;32;20063;-93
2021/03/11 01:52:02;;;;;;;26.20;16.05;;;;;;;;;;4347949;32;20059;-93
2021/03/11 01:54:41;;;;;;;24.08;13.20;;;;;;;;;;4358943;32;20099;-94
2021/03/11 01:57:13;;;;;;;20.98;11.80;;;;;;;;;;4344528;33;20137;-93
2021/03/11 01:59:43;;;;;;;26.85;12.57;;;;;;;;;;4367896;32;20145;-93
2021/03/11 02:02:18;;;;;;;21.30;11.70;;;;;;;;;;4354268;32;20107;-92
2021/03/11 02:04:49;;;;;;;25.27;10.05;;;;;;;;;;4341659;32;20110;-93
2021/03/11 02:07:18;;;;;;;23.00;12.10;;;;;;;;;;4358724;32;20423;-94
2021/03/11 02:09:55;;;;;;;21.08;14.65;;;;;;;;;;4348230;32;20087;-93
2021/03/11 02:12:32;;;;;;;18.87;5.47;;;;;;;;;;4350332;32;20163;-94
2021/03/11 02:15:11;;;;;;;20.90;4.95;;;;;;;;;;4332799;33;20123;-93
2021/03/11 02:17:43;;;;;;;26.35;20.08;;;;;;;;;;4344831;33;20052;-93
2021/03/11 02:20:38;;;;;;;17.58;4.40;;;;;;;;;;4342852;33;20471;-93
2021/03/11 02:23:25;;;;;;;13.40;3.85;;;;;;;;;;4341259;33;20126;-92
2021/03/11 02:26:14;;;;;;;12.88;3.70;;;;;;;;;;4335137;33;20116;-94
2021/03/11 02:28:56;;;;;;;19.37;4.68;;;;;;;;;;4337616;33;20086;-94
2021/03/11 02:31:30;;;;;;;12.70;4.12;;;;;;;;;;4338741;33;20078;-93
2021/03/11 02:34:06;;;;;;;20.08;4.55;;;;;;;;;;4334720;33;20446;-93
2021/03/11 02:36:40;;;;;;;15.88;4.65;;;;;;;;;;4331092;33;20118;-90
2021/03/11 02:39:15;;;;;;;19.83;9.55;;;;;;;;;;4329863;33;20060;-95
2021/03/11 02:41:50;;;;;;;18.87;11.85;;;;;;;;;;4345284;33;20793;-92
2021/03/11 02:44:22;;;;;;;28.73;18.10;;;;;;;;;;4330523;33;20060;-93
2021/03/11 02:46:52;;;;;;;32.78;17.50;;;;;;;;;;4323939;33;20107;-93
2021/03/11 02:49:28;;;;;;;25.95;17.58;;;;;;;;;;4338926;33;20451;-94
2021/03/11 02:52:00;;;;;;;25.55;17.10;;;;;;;;;;4330869;33;20061;-93
2021/03/11 02:54:29;;;;;;;27.45;17.77;;;;;;;;;;4330606;33;20139;-92
2021/03/11 02:57:04;;;;;;;26.55;15.13;;;;;;;;;;4324032;33;20056;-92
2021/03/11 02:59:37;;;;;;;22.33;13.25;;;;;;;;;;4339102;33;20887;-92
2021/03/11 03:02:05;;;;;;;19.92;12.65;;;;;;;;;;4332085;33;20056;-93
2021/03/11 03:04:44;;;;;;;20.05;15.48;;;;;;;;;;4329863;33;20102;-92
2021/03/11 03:07:16;;;;;;;21.00;12.75;;;;;;;;;;4326702;33;20797;-95
2021/03/11 03:09:49;;;;;;;25.52;16.20;;;;;;;;;;4335155;33;20079;-92
2021/03/11 03:12:22;;;;;;;14.93;4.30;;;;;;;;;;4325160;33;20044;-94
2021/03/11 03:14:52;;;;;;;17.73;4.55;;;;;;;;;;4354401;32;20091;-93
2021/03/11 03:17:24;;;;;;;18.17;4.12;;;;;;;;;;4342430;33;20063;-94
2021/03/11 03:20:00;;;;;;;19.27;4.10;;;;;;;;;;4358716;33;20075;-93
2021/03/11 03:22:29;;;;;;;21.35;5.20;;;;;;;;;;4344496;33;20043;-94
2021/03/11 03:25:00;;;;;;;18.02;4.78;;;;;;;;;;4342931;33;20090;-94
2021/03/11 03:27:31;;;;;;;12.68;3.80;;;;;;;;;;4353217;32;20059;-95
2021/03/11 03:29:59;;;;;;;16.45;4.90;;;;;;;;;;4341296;33;20047;-93
2021/03/11 03:32:31;;;;;;;21.50;5.10;;;;;;;;;;4341759;33;20056;-92
2021/03/11 03:35:00;;;;;;;22.17;4.97;;;;;;;;;;4344865;32;20126;-93
2021/03/11 03:37:30;;;;;;;15.25;4.07;;;;;;;;;;4352879;32;20459;-93
2021/03/11 03:40:01;;;;;;;20.52;4.70;;;;;;;;;;4338726;33;20084;-94
2021/03/11 03:42:30;;;;;;;16.65;4.62;;;;;;;;;;4354105;32;20131;-94
2021/03/11 03:45:08;;;;;;;17.60;4.30;;;;;;;;;;4355908;32;20089;-92
2021/03/11 03:47:36;;;;;;;17.62;4.07;;;;;;;;;;4336661;33;20154;-94
2021/03/11 03:50:05;;;;;;;16.10;4.68;;;;;;;;;;4355381;32;20078;-93
2021/03/11 03:52:36;;;;;;;15.18;4.55;;;;;;;;;;4340160;33;20105;-93
2021/03/11 03:55:06;;;;;;;18.08;4.90;;;;;;;;;;4370367;32;20068;-94
2021/03/11 03:57:37;;;;;;;14.93;4.75;;;;;;;;;;4345909;33;20069;-94
2021/03/11 04:00:09;;;;;;;15.75;5.30;;;;;;;;;;4353303;32;20075;-91
2021/03/11 04:02:42;;;;;;;18.10;4.78;;;;;;;;;;4360475;32;20291;-93
2021/03/11 04:05:17;;;;;;;26.85;5.45;;;;;;;;;;4353258;33;20068;-93
2021/03/11 04:07:52;;;;;;;19.80;5.43;;;;;;;;;;4337078;33;20035;-92
2021/03/11 04:10:20;;;;;;;17.67;4.28;;;;;;;;;;4341181;33;20103;-94
2021/03/11 04:12:53;;;;;;;20.35;5.12;;;;;;;;;;4337257;32;20440;-91
2021/03/11 04:15:21;;;;;;;17.62;5.10;;;;;;;;;;4347079;33;20052;-93
2021/03/11 04:17:59;;;;;;;14.25;5.20;;;;;;;;;;4349173;32;20831;-94
2021/03/11 04:20:31;;;;;;;16.10;5.37;;;;;;;;;;4355811;32;20090;-93
2021/03/11 04:23:06;;;;;;;18.58;4.90;;;;;;;;;;4339665;32;20100;-92
2021/03/11 04:25:50;;;;;;;16.85;5.03;;;;;;;;;;4346446;32;20055;-92
2021/03/11 04:28:21;;;;;;;21.40;5.47;;;;;;;;;;4352506;32;20868;-94
2021/03/11 04:30:59;;;;;;;19.08;5.43;;;;;;;;;;4361224;32;20150;-91
2021/03/11 04:33:31;;;;;;;22.02;6.25;;;;;;;;;;4347408;32;20043;-92
2021/03/11 04:36:00;;;;;;;18.17;5.22;;;;;;;;;;4359282;32;20125;-94
2021/03/11 04:38:30;;;;;;;17.85;5.80;;;;;;;;;;4343790;32;20415;-92
2021/03/11 04:41:03;;;;;;;17.67;5.20;;;;;;;;;;4346330;32;20103;-93
2021/03/11 04:43:37;;;;;;;15.63;5.10;;;;;;;;;;4352670;32;20536;-92
2021/03/11 04:46:13;;;;;;;22.27;5.72;;;;;;;;;;4342522;33;20095;-95
2021/03/11 04:48:48;;;;;;;24.23;5.78;;;;;;;;;;4344661;32;20063;-93
2021/03/11 04:51:19;;;;;;;19.52;6.12;;;;;;;;;;4346798;32;20097;-91
2021/03/11 04:53:48;;;;;;;23.12;6.20;;;;;;;;;;4359820;32;20492;-93
2021/03/11 04:56:16;;;;;;;21.25;5.80;;;;;;;;;;4346658;32;20067;-93
2021/03/11 04:58:47;;;;;;;51.92;41.20;;;;;;;;;;4367442;32;20087;-95
2021/03/11 05:01:21;;;;;;;27.50;6.50;;;;;;;;;;4343126;32;20063;-93
2021/03/11 05:03:53;;;;;;;24.37;5.93;;;;;;;;;;4365176;32;20117;-94
2021/03/11 05:06:24;;;;;;;21.48;6.40;;;;;;;;;;4342543;32;20067;-91
2021/03/11 05:08:52;;;;;;;23.00;5.85;;;;;;;;;;4355688;32;20059;-93
2021/03/11 05:11:20;;;;;;;22.02;6.68;;;;;;;;;;4358686;32;20141;-93
2021/03/11 05:13:56;;;;;;;24.55;6.45;;;;;;;;;;4342747;32;20078;-92
2021/03/11 05:16:31;;;;;;;21.65;6.05;;;;;;;;;;4344783;32;20044;-94
2021/03/11 05:19:04;;;;;;;17.95;6.10;;;;;;;;;;4343504;32;20091;-92
2021/03/11 05:21:33;;;;;;;18.23;5.82;;;;;;;;;;4343605;32;20054;-94
2021/03/11 05:24:07;;;;;;;21.87;5.63;;;;;;;;;;4344790;32;20102;-93
2021/03/11 05:26:39;;;;;;;21.83;6.28;;;;;;;;;;4346084;32;21060;-95
2021/03/11 05:29:17;;;;;;;21.80;5.15;;;;;;;;;;4339642;32;20083;-95
2021/03/11 05:31:51;;;;;;;22.13;5.95;;;;;;;;;;4328997;32;20103;-94
2021/03/11 05:34:20;;;;;;;21.17;6.35;;;;;;;;;;4343861;32;21251;-93
2021/03/11 05:36:52;;;;;;;18.27;5.35;;;;;;;;;;4339799;33;20065;-93
2021/03/11 05:39:21;;;;;;;15.93;5.03;;;;;;;;;;4342015;32;20087;-94
2021/03/11 05:41:52;;;;;;;19.05;5.90;;;;;;;;;;4346479;32;20093;-92
2021/03/11 05:44:23;;;;;;;16.65;5.65;;;;;;;;;;4347312;32;20097;-93
2021/03/11 05:46:57;;;;;;;20.50;5.55;;;;;;;;;;4343168;32;20154;-92
2021/03/11 05:49:33;;;;;;;18.52;6.03;;;;;;;;;;4354912;32;20148;-94
2021/03/11 05:52:04;;;;;;;19.00;5.97;;;;;;;;;;4356306;32;20085;-94
2021/03/11 05:54:41;;;;;;;20.27;6.10;;;;;;;;;;4344931;32;20059;-94
2021/03/11 05:57:09;;;;;;;19.98;5.78;;;;;;;;;;4348468;32;20039;-94
2021/03/11 05:59:40;;;;;;;27.13;6.57;;;;;;;;;;4342120;32;20101;-93
2021/03/11 06:02:10;;;;;;;20.70;5.43;;;;;;;;;;4354018;32;20108;-94
2021/03/11 06:04:44;;;;;;;19.40;5.78;;;;;;;;;;4340240;32;20106;-93
2021/03/11 06:07:13;;;;;;;20.42;5.60;;;;;;;;;;4337941;33;20642;-94
2021/03/11 06:09:44;;;;;;;17.62;5.62;;;;;;;;;;4353597;32;20071;-95
2021/03/11 06:12:15;;;;;;;20.77;5.57;;;;;;;;;;4339119;32;20048;-93
2021/03/11 06:14:55;;;;;;;18.50;5.40;;;;;;;;;;4354097;32;20089;-93
2021/03/11 06:17:27;;;;;;;20.77;6.32;;;;;;;;;;4345125;32;20214;-93
2021/03/11 06:19:57;;;;;;;;;;;;;;;;;;4345374;32;20055;-92
2021/03/11 06:22:26;;;;;;;16.60;4.78;;;;;;;;;;4345894;32;20010;-94
2021/03/11 06:25:02;;;;;;;20.23;5.15;;;;;;;;;;4345421;32;20052;-93
2021/03/11 06:27:35;;;;;;;24.20;5.75;;;;;;;;;;4347807;32;20111;-94
2021/03/11 06:30:33;;;;;;;18.40;5.85;;;;;;;;;;4347317;32;20464;-92
2021/03/11 06:33:04;;;;;;;19.62;5.32;;;;;;;;;;4342987;33;20113;-94
2021/03/11 06:35:45;;;;;;;20.00;5.62;;;;;;;;;;4337697;32;20043;-96
2021/03/11 06:38:29;;;;;;;24.63;5.35;;;;;;;;;;4336759;32;20059;-92
2021/03/11 06:41:01;;;;;;;18.55;5.62;;;;;;;;;;4357477;32;20440;-94
2021/03/11 06:43:30;;;;;;;17.67;6.07;;;;;;;;;;4361843;32;20139;-94
2021/03/11 06:46:06;;;;;;;20.73;5.90;;;;;;;;;;4345301;32;20063;-92
2021/03/11 06:48:41;;;;;;;18.55;5.43;;;;;;;;;;4349080;32;20125;-94
2021/03/11 06:51:21;;;;;;;19.27;4.90;;;;;;;;;;4346092;32;20079;-93
2021/03/11 06:53:59;;;;;;;15.25;4.85;;;;;;;;;;4339993;32;20067;-93
2021/03/11 06:56:32;;;;;;;21.40;5.05;;;;;;;;;;4347282;33;20059;-95
2021/03/11 06:59:02;;;;;;;15.70;4.87;;;;;;;;;;4360452;32;20514;-92
2021/03/11 07:01:34;;;;;;;19.77;4.85;;;;;;;;;;4361419;32;20059;-93
2021/03/11 07:04:03;;;;;;;18.30;5.37;;;;;;;;;;4350458;32;20067;-94
2021/03/11 07:06:36;;;;;;;21.05;5.35;;;;;;;;;;4351673;32;20126;-95
2021/03/11 07:09:09;;;;;;;12.57;4.65;;;;;;;;;;4345259;32;20073;-96
2021/03/11 07:11:52;;;;;;;14.32;4.55;;;;;;;;;;4352710;32;20059;-95
2021/03/11 07:14:29;;;;;;;20.95;12.98;;;;;;;;;;4351688;32;20459;-96
2021/03/11 07:17:22;;;;;;;21.60;5.35;;;;;;;;;;4357863;32;20046;-96
2021/03/11 07:20:09;;;;;;;17.08;5.22;;;;;;;;;;4350848;32;20121;-95
2021/03/11 07:22:38;;;;;;;19.75;5.40;;;;;;;;;;4343520;33;20059;-96
2021/03/11 07:25:30;;;;;;;14.30;5.15;;;;;;;;;;4353094;32;20448;-96
2021/03/11 07:28:28;;;;;;;19.10;5.78;;;;;;;;;;4345459;32;20059;-96
2021/03/11 07:31:06;;;;;;;21.50;5.80;;;;;;;;;;4363005;32;20074;-96
2021/03/11 07:33:47;;;;;;;24.45;18.55;;;;;;;;;;4351671;32;20055;-96
2021/03/11 07:36:21;;;;;;;19.98;5.15;;;;;;;;;;4358873;32;20116;-96
2021/03/11 07:38:52;;;;;;;19.02;5.37;;;;;;;;;;4351888;32;20035;-96
2021/03/11 07:41:41;;;;;;;28.27;22.70;;;;;;;;;;4351816;33;20055;-95
2021/03/11 07:44:14;;;;;;;23.27;5.93;;;;;;;;;;4354259;32;20052;-96
2021/03/11 07:46:43;;;;;;;32.30;22.25;;;;;;;;;;4359725;32;20055;-96
2021/03/11 07:49:22;;;;;;;24.67;12.30;;;;;;;;;;4346686;32;20051;-96
2021/03/11 07:51:51;;;;;;;23.02;12.77;;;;;;;;;;4363723;32;20090;-96
2021/03/11 07:54:25;;;;;;;26.98;14.77;;;;;;;;;;4351870;32;20105;-95
2021/03/11 07:56:54;;;;;;;;;;;;;;;;;;4377574;32;20109;-95
2021/03/11 07:59:29;;;;;;;17.37;5.57;;;;;;;;;;4358904;32;20695;-95
2021/03/11 08:02:10;;;;;;;22.65;5.60;;;;;;;;;;4343552;32;20185;-94
2021/03/11 08:04:49;;;;;;;18.00;6.57;;;;;;;;;;4349312;32;20058;-94
2021/03/11 08:07:22;;;;;;;25.25;13.82;;;;;;;;;;4347179;32;20117;-93
2021/03/11 08:09:56;;;;;;;17.17;9.13;;;;;;;;;;4353949;32;20052;-95
2021/03/11 08:12:32;;;;;;;24.42;12.65;;;;;;;;;;4359830;32;20086;-95
2021/03/11 08:15:08;;;;;;;16.77;5.25;;;;;;;;;;4349363;32;20065;-96
2021/03/11 08:18:12;;;;;;;17.58;5.43;;;;;;;;;;4360222;32;20085;-95
2021/03/11 08:20:40;;;;;;;16.77;7.25;;;;;;;;;;4362322;32;20067;-96
2021/03/11 08:23:36;;;;;;;24.02;11.12;;;;;;;;;;4342177;32;20194;-95
2021/03/11 08:26:11;;;;;;;18.45;5.10;;;;;;;;;;4347416;32;20047;-96
2021/03/11 08:28:42;;;;;;;20.73;7.30;;;;;;;;;;4348666;32;20149;-96
2021/03/11 08:31:13;;;;;;;19.98;5.37;;;;;;;;;;4345458;32;20113;-95
2021/03/11 08:33:44;;;;;;;19.60;5.45;;;;;;;;;;4348060;32;20062;-95
2021/03/11 08:36:25;;;;;;;17.90;4.60;;;;;;;;;;4345545;32;20079;-95
2021/03/11 08:38:54;;;;;;;12.13;4.55;;;;;;;;;;4356580;32;20078;-95
2021/03/11 08:44:45;;;;;;;20.92;5.03;;;;;;;;;;4352555;32;20061;-95
2021/03/11 08:47:15;;;;;;;14.02;4.07;;;;;;;;;;4343083;32;20069;-96
2021/03/11 08:49:50;;;;;;;15.15;4.32;;;;;;;;;;4347410;32;20056;-96
2021/03/11 08:52:43;;;;;;;12.20;4.72;;;;;;;;;;4341102;32;20086;-95
2021/03/11 08:55:30;;;;;;;14.25;4.10;;;;;;;;;;4359159;32;20154;-96
2021/03/11 08:58:05;;;;;;;16.42;5.00;;;;;;;;;;4362448;32;20070;-95
2021/03/11 09:00:55;;;;;;;15.90;4.20;;;;;;;;;;4349008;32;20077;-96
2021/03/11 09:03:37;;;;;;;20.15;5.15;;;;;;;;;;4358717;32;20343;-95
2021/03/11 09:06:10;;;;;;;19.27;4.97;;;;;;;;;;4354232;32;20063;-96
2021/03/11 09:08:58;;;;;;;16.42;5.22;;;;;;;;;;4348873;32;20082;-95
2021/03/11 09:11:37;;;;;;;16.95;4.90;;;;;;;;;;4337858;32;20485;-95
2021/03/11 09:14:09;;;;;;;12.45;4.35;;;;;;;;;;4358391;32;20856;-96
2021/03/11 09:16:40;;;;;;;14.35;4.87;;;;;;;;;;4349284;32;20055;-96
2021/03/11 09:19:09;;;;;;;14.35;4.70;;;;;;;;;;4338917;32;20098;-96
2021/03/11 09:21:41;;;;;;;17.70;4.60;;;;;;;;;;4346885;32;20118;-96
2021/03/11 09:24:18;;;;;;;14.02;4.95;;;;;;;;;;4343991;32;20109;-96
2021/03/11 09:26:47;;;;;;;11.30;4.03;;;;;;;;;;4355374;32;20094;-96
2021/03/11 09:29:17;;;;;;;10.75;4.40;;;;;;;;;;4340804;32;20035;-96
2021/03/11 09:31:47;;;;;;;15.23;4.78;;;;;;;;;;4360744;32;20047;-96
2021/03/11 09:34:27;;;;;;;10.57;3.15;;;;;;;;;;4362316;32;20064;-96
2021/03/11 09:36:58;;;;;;;10.63;2.67;;;;;;;;;;4362332;32;20039;-95
2021/03/11 09:39:30;;;;;;;6.53;2.58;;;;;;;;;;4348668;32;20098;-96
2021/03/11 09:42:12;;;;;;;7.50;2.45;;;;;;;;;;4350192;32;20079;-96
2021/03/11 09:44:46;;;;;;;11.40;2.65;;;;;;;;;;4355820;32;20090;-96
2021/03/11 09:47:28;;;;;;;10.35;4.50;;;;;;;;;;4355998;32;20094;-96
2021/03/11 09:50:15;;;;;;;14.35;5.00;;;;;;;;;;4348588;32;20051;-96
2021/03/11 09:52:56;;;;;;;12.68;4.70;;;;;;;;;;4347652;32;20047;-94
2021/03/11 09:55:25;;;;;;;11.60;4.40;;;;;;;;;;4350846;32;20047;-96
2021/03/11 09:58:08;;;;;;;;;;;;;;;;;;4346831;32;20078;-96
2021/03/11 10:00:52;;;;;;;12.48;4.57;;;;;;;;;;4349301;32;19973;-96
2021/03/11 10:03:26;;;;;;;12.88;4.80;;;;;;;;;;4358488;32;20386;-95
2021/03/11 10:06:06;;;;;;;10.65;4.30;;;;;;;;;;4351107;32;20095;-95
2021/03/11 10:08:48;;;;;;;9.52;4.10;;;;;;;;;;4350937;32;20096;-96
2021/03/11 10:11:18;;;;;;;10.93;4.25;;;;;;;;;;4348994;32;20399;-95
2021/03/11 10:13:57;;;;;;;12.02;4.57;;;;;;;;;;4350548;32;20052;-96
2021/03/11 10:16:36;;;;;;;11.70;4.30;;;;;;;;;;4349106;32;20125;-96
2021/03/11 10:19:19;;;;;;;12.75;4.50;;;;;;;;;;4349781;33;20079;-95
2021/03/11 10:22:28;;;;;;;12.85;4.80;;;;;;;;;;4350111;33;20044;-96
2021/03/11 10:25:19;;;;;;;12.32;4.62;;;;;;;;;;4353850;33;20491;-96
2021/03/11 10:27:55;;;;;;;17.42;4.60;;;;;;;;;;4383107;27;20028;-80
2021/03/11 10:30:24;;;;;;;14.35;4.50;;;;;;;;;;4350350;32;20147;-80
2021/03/11 10:32:54;;;;;;;11.98;4.93;;;;;;;;;;4350363;32;20479;-79
2021/03/11 10:35:37;;;;;;;15.57;4.90;;;;;;;;;;4353766;33;20390;-80
2021/03/11 10:38:18;;;;;;;14.45;4.95;;;;;;;;;;4347881;32;20113;-79
2021/03/11 10:40:47;;;;;;;14.05;5.30;;;;;;;;;;4349362;32;20076;-79
2021/03/11 10:43:23;;;;;;;17.02;5.15;;;;;;;;;;4349856;32;20473;-78
2021/03/11 10:45:51;;;;;;;13.82;4.57;;;;;;;;;;4348948;32;20060;-82
2021/03/11 10:48:20;;;;;;;15.45;5.20;;;;;;;;;;4351365;32;20351;-81
2021/03/11 10:50:50;;;;;;;18.75;5.12;;;;;;;;;;4354269;32;20051;-78
2021/03/11 10:53:21;;;;;;;21.17;5.90;;;;;;;;;;4349181;32;20060;-80
2021/03/11 10:55:50;;;;;;;18.98;4.78;;;;;;;;;;4347035;32;20205;-78
2021/03/11 10:58:25;;;;;;;14.87;4.43;;;;;;;;;;4352818;32;20063;-79
2021/03/11 11:01:09;;;;;;;15.70;4.32;;;;;;;;;;4353973;32;20085;-78
2021/03/11 11:03:37;;;;;;;30.55;6.40;;;;;;;;;;4351126;32;20445;-78
2021/03/11 11:06:07;;;;;;;31.50;5.68;;;;;;;;;;4350353;32;20497;-78
2021/03/11 11:08:37;;;;;;;22.95;5.40;;;;;;;;;;4351129;32;20075;-78
2021/03/11 11:11:06;;;;;;;22.98;9.65;;;;;;;;;;4352702;32;20107;-80
2021/03/11 11:13:34;;;;;;;27.02;6.00;;;;;;;;;;4350164;32;20067;-79
2021/03/11 11:16:02;;;;;;;23.73;5.55;;;;;;;;;;4349063;33;20614;-78
2021/03/11 11:18:30;;;;;;;25.73;5.90;;;;;;;;;;4351188;32;20070;-78
2021/03/11 11:20:59;;;;;;;24.27;5.68;;;;;;;;;;4351799;32;20047;-78
2021/03/11 11:23:27;;;;;;;25.65;5.82;;;;;;;;;;4352296;32;20086;-78
2021/03/11 11:25:55;;;;;;;34.78;6.60;;;;;;;;;;4346968;32;20099;-78
2021/03/11 11:28:23;;;;;;;25.90;7.15;;;;;;;;;;4347893;32;20055;-79
2021/03/11 11:30:51;;;;;;;42.97;8.77;;;;;;;;;;4352260;32;20098;-79
2021/03/11 11:33:19;;;;;;;27.70;6.43;;;;;;;;;;4349546;32;20315;-78
2021/03/11 11:35:49;;;;;;;33.97;7.20;;;;;;;;;;4351363;32;20427;-80
2021/03/11 11:38:17;;;;;;;29.67;5.80;;;;;;;;;;4352282;32;20425;-78
2021/03/11 11:40:46;;;;;;;29.90;5.93;;;;;;;;;;4352765;32;20438;-79
2021/03/11 11:43:14;;;;;;;30.80;5.60;;;;;;;;;;4348657;32;20167;-78
2021/03/11 11:45:42;;;;;;;25.37;5.70;;;;;;;;;;4351297;32;20059;-78
2021/03/11 11:48:10;;;;;;;37.72;6.87;;;;;;;;;;4339280;33;20469;-79
2021/03/11 11:50:52;;;;;;;23.52;5.68;;;;;;;;;;4350714;33;20067;-78
2021/03/11 11:53:21;;;;;;;40.67;7.15;;;;;;;;;;4352112;32;20035;-79
2021/03/11 11:55:49;;;;;;;1999.90;999.90;;;;;;;;;;4347222;32;20101;-78
2021/03/11 11:58:17;;;;;;;1999.90;999.90;;;;;;;;;;4349644;33;20063;-78
2021/03/11 12:00:46;;;;;;;1999.90;999.90;;;;;;;;;;4352525;32;20074;-78
2021/03/11 12:03:14;;;;;;;1999.90;999.90;;;;;;;;;;4346558;32;20126;-79
2021/03/11 12:05:43;;;;;;;1999.90;999.90;;;;;;;;;;4348516;32;20111;-79
2021/03/11 12:08:11;;;;;;;1999.90;999.90;;;;;;;;;;4347593;32;20057;-79
2021/03/11 12:10:40;;;;;;;4.07;1.70;;;;;;;;;;4347995;32;20469;-78
2021/03/11 12:13:08;;;;;;;30.80;7.95;;;;;;;;;;4348339;32;20498;-79
2021/03/11 12:15:37;;;;;;;1999.90;999.90;;;;;;;;;;4347414;32;20103;-80
2021/03/11 12:18:06;;;;;;;14.25;13.68;;;;;;;;;;4349212;32;20148;-79
2021/03/11 12:20:36;;;;;;;10.05;9.65;;;;;;;;;;4352149;32;20090;-78
2021/03/11 12:23:05;;;;;;;10.45;10.05;;;;;;;;;;4347213;32;20382;-80
2021/03/11 12:25:34;;;;;;;14.18;13.57;;;;;;;;;;4350654;32;20162;-78
2021/03/11 12:28:03;;;;;;;16.75;16.05;;;;;;;;;;4342601;32;20111;-79
2021/03/11 12:30:32;;;;;;;95.85;91.65;;;;;;;;;;4352587;32;20828;-79
2021/03/11 12:33:00;;;;;;;114.20;109.32;;;;;;;;;;4344137;32;20040;-78
2021/03/11 12:35:28;;;;;;;86.43;82.70;;;;;;;;;;4349483;32;20040;-78
2021/03/11 12:37:56;;;;;;;52.85;50.53;;;;;;;;;;4346674;32;20590;-78
2021/03/11 12:40:26;;;;;;;66.53;63.60;;;;;;;;;;4346947;32;20052;-79
2021/03/11 12:42:54;;;;;;;36.55;34.75;;;;;;;;;;4335947;33;20063;-79
2021/03/11 12:45:23;;;;;;;13.65;2.87;;;;;;;;;;4343531;32;20057;-79
2021/03/11 12:47:52;;;;;;;13.93;2.92;;;;;;;;;;4343336;32;20103;-78
2021/03/11 12:50:20;;;;;;;11.90;3.15;;;;;;;;;;4349690;32;20140;-78
2021/03/11 12:52:49;;;;;;;8.77;2.45;;;;;;;;;;4348830;32;20101;-79
2021/03/11 12:55:18;;;;;;;9.10;2.28;;;;;;;;;;4334369;32;20178;-79
2021/03/11 12:57:46;;;;;;;27.20;3.22;;;;;;;;;;4347907;32;20056;-80
2021/03/11 13:00:21;;;;;;;12.68;2.72;;;;;;;;;;4338340;33;20121;-77
2021/03/11 13:03:04;;;;;;;14.87;2.92;;;;;;;;;;4347188;32;20067;-78
2021/03/11 13:05:33;;;;;;;14.05;2.42;;;;;;;;;;4345764;32;20075;-78
2021/03/11 13:08:03;;;;;;;283.10;249.52;;;;;;;;;;4339463;33;20076;-78
2021/03/11 13:10:31;;;;;;;1.40;1.40;;;;;;;;;;4343955;32;20048;-79
2021/03/11 13:12:59;;;;;;;1.35;1.35;;;;;;;;;;4345060;32;21345;-78
2021/03/11 13:15:27;;;;;;;12.60;2.50;;;;;;;;;;4341681;32;20149;-78
2021/03/11 13:17:55;;;;;;;18.45;2.80;;;;;;;;;;4340207;32;20186;-78
2021/03/11 13:20:25;;;;;;;15.15;2.30;;;;;;;;;;4346700;32;20117;-78
2021/03/11 13:22:54;;;;;;;16.90;2.28;;;;;;;;;;4345440;32;20089;-77
2021/03/11 13:25:22;;;;;;;12.35;2.33;;;;;;;;;;4342437;32;20948;-78
2021/03/11 13:27:50;;;;;;;20.00;3.20;;;;;;;;;;4341562;32;20051;-78
2021/03/11 13:30:18;;;;;;;13.10;3.12;;;;;;;;;;4351225;32;20082;-77
2021/03/11 13:32:47;;;;;;;15.02;2.50;;;;;;;;;;4346468;32;20155;-78
2021/03/11 13:35:17;;;;;;;22.65;3.33;;;;;;;;;;4347330;32;20385;-80
2021/03/11 13:37:46;;;;;;;11.75;2.03;;;;;;;;;;4346129;32;20056;-79
2021/03/11 13:40:15;;;;;;;17.00;2.92;;;;;;;;;;4347414;33;20154;-80
2021/03/11 13:42:43;;;;;;;18.45;2.40;;;;;;;;;;4350681;32;20073;-80
2021/03/11 13:45:12;;;;;;;15.85;2.15;;;;;;;;;;4351596;32;20059;-80
2021/03/11 13:47:40;;;;;;;15.10;2.62;;;;;;;;;;4345853;32;20520;-80
2021/03/11 13:50:09;;;;;;;16.25;2.10;;;;;;;;;;4348262;33;20455;-79
2021/03/11 13:52:37;;;;;;;11.93;2.58;;;;;;;;;;4347132;32;20122;-80
2021/03/11 13:55:07;;;;;;;14.65;2.83;;;;;;;;;;4349954;32;20123;-80
2021/03/11 13:57:35;;;;;;;13.38;2.50;;;;;;;;;;4330965;33;20544;-80
2021/03/11 14:00:04;;;;;;;11.70;2.00;;;;;;;;;;4349614;33;20094;-79
2021/03/11 14:02:40;;;;;;;17.30;2.87;;;;;;;;;;4349688;32;20067;-80
2021/03/11 14:05:10;;;;;;;10.32;2.20;;;;;;;;;;4347121;32;20127;-80
2021/03/11 14:07:38;;;;;;;13.77;2.72;;;;;;;;;;4342026;32;20226;-80
2021/03/11 14:10:07;;;;;;;15.23;2.40;;;;;;;;;;4317650;33;20068;-80
2021/03/11 14:12:35;;;;;;;16.70;2.70;;;;;;;;;;4346761;32;20178;-81
2021/03/11 14:15:04;;;;;;;9.05;1.95;;;;;;;;;;4348062;32;20056;-80
2021/03/11 14:17:35;;;;;;;13.27;2.42;;;;;;;;;;4346189;32;20060;-80
2021/03/11 14:20:05;;;;;;;14.73;2.55;;;;;;;;;;4343785;32;20068;-79
2021/03/11 14:22:33;;;;;;;12.88;2.60;;;;;;;;;;4345540;32;20048;-81
2021/03/11 14:25:01;;;;;;;14.63;2.80;;;;;;;;;;4346429;32;20398;-80
2021/03/11 14:27:29;;;;;;;13.90;3.00;;;;;;;;;;4345480;32;20449;-80
2021/03/11 14:29:57;;;;;;;13.10;2.78;;;;;;;;;;4346213;32;20103;-79
2021/03/11 14:32:26;;;;;;;19.05;2.85;;;;;;;;;;4348998;32;20578;-80
2021/03/11 14:34:55;;;;;;;11.85;2.25;;;;;;;;;;4336656;33;20059;-80
2021/03/11 14:37:23;;;;;;;16.42;3.05;;;;;;;;;;4345322;32;20112;-80
2021/03/11 14:39:51;;;;;;;11.90;2.62;;;;;;;;;;4346914;32;20349;-79
2021/03/11 14:42:20;;;;;;;16.73;2.87;;;;;;;;;;4346980;32;20122;-80
2021/03/11 14:44:48;;;;;;;18.23;2.67;;;;;;;;;;4345013;32;20600;-79
2021/03/11 14:47:17;;;;;;;18.92;2.92;;;;;;;;;;4343388;32;20116;-80
2021/03/11 14:49:45;;;;;;;13.75;2.83;;;;;;;;;;4351578;32;20179;-82
2021/03/11 14:52:14;;;;;;;12.43;2.55;;;;;;;;;;4346079;32;20503;-79
2021/03/11 14:54:46;;;;;;;15.68;2.87;;;;;;;;;;4342660;32;20113;-80
2021/03/11 14:57:16;;;;;;;12.93;2.45;;;;;;;;;;4347509;32;20098;-79
2021/03/11 14:59:44;;;;;;;17.75;3.17;;;;;;;;;;4351599;32;20086;-80
2021/03/11 15:02:13;;;;;;;13.15;3.17;;;;;;;;;;4352388;32;20056;-79
2021/03/11 15:04:43;;;;;;;19.60;4.00;;;;;;;;;;4352370;32;20063;-80
2021/03/11 15:07:11;;;;;;;17.00;3.25;;;;;;;;;;4349201;32;20085;-79